createdAt,value
2023-03-29T00:00:14.260Z,67.76
2023-03-29T00:03:07.264Z,66.77
2023-03-29T00:05:41.438Z,66.58
2023-03-29T00:08:14.923Z,66.43
2023-03-29T00:10:49.833Z,66.73
2023-03-29T00:13:21.809Z,66.92
2023-03-29T00:15:54.143Z,66.52
2023-03-29T00:18:26.279Z,66.40
2023-03-29T00:21:00.211Z,66.63
2023-03-29T00:23:32.576Z,66.45
2023-03-29T00:26:07.166Z,66.25
2023-03-29T00:28:40.139Z,66.11
2023-03-29T00:31:14.255Z,66.58
2023-03-29T00:33:47.136Z,66.47
2023-03-29T00:36:19.899Z,66.92
2023-03-29T00:38:51.998Z,67.62
2023-03-29T00:41:23.976Z,68.12
2023-03-29T00:44:02.126Z,67.64
2023-03-29T00:46:35.227Z,67.46
2023-03-29T00:49:14.184Z,67.41
2023-03-29T00:51:47.022Z,67.03
2023-03-29T00:54:19.889Z,66.87
2023-03-29T00:56:53.948Z,66.53
2023-03-29T00:59:29.916Z,67.11
2023-03-29T01:02:05.500Z,66.98
2023-03-29T01:04:42.740Z,66.82
2023-03-29T01:07:21.853Z,66.50
2023-03-29T01:10:01.593Z,66.43
2023-03-29T01:12:40.470Z,66.37
2023-03-29T01:15:15.461Z,66.33
2023-03-29T01:17:50.918Z,66.29
2023-03-29T01:20:31.156Z,66.42
2023-03-29T01:23:23.173Z,66.52
2023-03-29T01:26:03.531Z,67.25
2023-03-29T01:28:41.884Z,67.77
2023-03-29T01:31:18.439Z,67.49
2023-03-29T01:33:53.275Z,67.62
2023-03-29T01:36:31.649Z,68.33
2023-03-29T01:39:08.670Z,68.66
2023-03-29T01:41:50.865Z,68.38
2023-03-29T01:44:31.517Z,69.46
2023-03-29T01:47:12.495Z,68.11
2023-03-29T01:49:52.559Z,69.31
2023-03-29T01:52:30.850Z,69.29
2023-03-29T01:55:08.243Z,69.91
2023-03-29T01:57:44.042Z,70.20
2023-03-29T02:00:21.294Z,69.75
2023-03-29T02:02:56.210Z,69.10
2023-03-29T02:05:31.627Z,69.23
2023-03-29T02:08:06.870Z,69.74
2023-03-29T02:10:39.650Z,69.42
2023-03-29T02:13:11.991Z,70.44
2023-03-29T02:15:45.603Z,70.34
2023-03-29T02:18:19.411Z,70.52
2023-03-29T02:20:54.018Z,69.83
2023-03-29T02:23:34.387Z,68.99
2023-03-29T02:26:09.053Z,68.66
2023-03-29T02:28:42.120Z,68.49
2023-03-29T02:31:21.402Z,68.99
2023-03-29T02:34:00.520Z,68.41
2023-03-29T02:36:38.376Z,68.27
2023-03-29T02:39:14.481Z,68.77
2023-03-29T02:41:49.982Z,71.48
2023-03-29T02:44:26.039Z,73.21
2023-03-29T02:47:03.503Z,72.75
2023-03-29T02:49:35.736Z,70.94
2023-03-29T02:52:12.496Z,70.38
2023-03-29T02:54:47.106Z,70.77
2023-03-29T02:57:22.214Z,70.54
2023-03-29T02:59:54.682Z,70.75
2023-03-29T03:02:29.941Z,72.90
2023-03-29T03:05:02.416Z,71.50
2023-03-29T03:07:34.991Z,72.53
2023-03-29T03:10:08.252Z,73.85
2023-03-29T03:12:42.061Z,72.86
2023-03-29T03:15:14.824Z,73.00
2023-03-29T03:17:47.638Z,71.55
2023-03-29T03:20:22.253Z,70.46
2023-03-29T03:22:54.616Z,69.88
2023-03-29T03:25:26.640Z,69.73
2023-03-29T03:27:58.705Z,69.97
2023-03-29T03:30:31.118Z,69.65
2023-03-29T03:33:03.315Z,69.80
2023-03-29T03:35:57.212Z,71.11
2023-03-29T03:38:30.093Z,71.39
2023-03-29T03:41:03.920Z,71.58
2023-03-29T03:43:38.012Z,71.26
2023-03-29T03:46:11.639Z,72.14
2023-03-29T03:48:44.019Z,72.12
2023-03-29T03:51:23.315Z,71.97
2023-03-29T03:53:55.481Z,72.29
2023-03-29T03:56:39.970Z,72.61
2023-03-29T03:59:14.696Z,72.15
2023-03-29T04:01:56.066Z,72.77
2023-03-29T04:04:28.878Z,72.36
2023-03-29T04:07:34.603Z,72.52
2023-03-29T04:10:24.774Z,72.71
2023-03-29T04:13:05.156Z,71.33
2023-03-29T04:15:39.684Z,72.03
2023-03-29T04:18:13.801Z,72.04
2023-03-29T04:20:50.742Z,71.62
2023-03-29T04:23:24.347Z,72.57
2023-03-29T04:25:58.283Z,74.13
2023-03-29T04:28:50.211Z,72.95
2023-03-29T04:31:45.719Z,73.22
2023-03-29T04:34:37.044Z,73.45
2023-03-29T04:37:10.748Z,73.81
2023-03-29T04:39:44.978Z,72.50
2023-03-29T04:42:18.357Z,72.09
2023-03-29T04:44:53.387Z,71.60
2023-03-29T04:47:33.140Z,72.23
2023-03-29T04:50:16.255Z,73.08
2023-03-29T04:52:50.945Z,72.45
2023-03-29T04:55:23.383Z,72.11
2023-03-29T04:58:00.865Z,71.50
2023-03-29T05:00:40.100Z,71.53
2023-03-29T05:03:14.696Z,71.42
2023-03-29T05:06:14.212Z,71.31
2023-03-29T05:08:46.688Z,71.38
2023-03-29T05:11:39.020Z,71.40
2023-03-29T05:14:11.263Z,71.29
2023-03-29T05:16:44.346Z,71.62
2023-03-29T05:19:17.689Z,71.21
2023-03-29T05:21:53.270Z,71.14
2023-03-29T05:24:27.510Z,71.89
2023-03-29T05:27:12.003Z,71.32
2023-03-29T05:29:44.995Z,71.05
2023-03-29T05:32:56.185Z,72.06
2023-03-29T05:35:30.321Z,71.83
2023-03-29T05:38:04.482Z,72.31
2023-03-29T05:40:37.706Z,72.18
2023-03-29T05:43:31.100Z,72.10
2023-03-29T05:46:03.587Z,71.96
2023-03-29T05:48:36.229Z,71.68
2023-03-29T05:51:10.229Z,71.90
2023-03-29T05:53:42.573Z,71.43
2023-03-29T05:56:16.413Z,71.25
2023-03-29T05:58:49.359Z,70.97
2023-03-29T06:01:22.641Z,71.23
2023-03-29T06:04:15.441Z,71.30
2023-03-29T06:06:56.640Z,71.78
2023-03-29T06:09:29.158Z,71.65
2023-03-29T06:12:07.624Z,71.35
2023-03-29T06:14:46.414Z,71.24
2023-03-29T06:17:28.216Z,71.38
2023-03-29T06:20:00.733Z,71.21
2023-03-29T06:22:33.459Z,71.04
2023-03-29T06:25:05.926Z,70.57
2023-03-29T06:27:38.736Z,70.03
2023-03-29T06:30:14.636Z,69.79
2023-03-29T06:32:50.651Z,69.60
2023-03-29T06:35:45.391Z,70.08
2023-03-29T06:38:21.022Z,69.76
2023-03-29T06:41:12.081Z,68.75
2023-03-29T06:44:05.224Z,68.66
2023-03-29T06:46:40.913Z,68.73
2023-03-29T06:49:13.956Z,68.28
2023-03-29T06:52:00.182Z,67.44
2023-03-29T06:54:33.733Z,66.99
2023-03-29T06:57:07.995Z,66.73
2023-03-29T06:59:40.262Z,66.58
2023-03-29T07:02:25.917Z,65.79
2023-03-29T07:05:01.728Z,66.00
2023-03-29T07:07:53.617Z,65.46
2023-03-29T07:10:42.061Z,65.12
2023-03-29T07:13:33.259Z,64.61
2023-03-29T07:16:12.767Z,63.83
2023-03-29T07:18:53.754Z,63.47
2023-03-29T07:21:58.956Z,62.85
2023-03-29T07:24:40.119Z,62.08
2023-03-29T07:27:12.956Z,62.28
2023-03-29T07:29:45.089Z,62.64
2023-03-29T07:32:17.547Z,62.14
2023-03-29T07:34:49.770Z,61.62
2023-03-29T07:37:37.876Z,61.48
2023-03-29T07:40:16.380Z,60.85
2023-03-29T07:43:11.804Z,60.54
2023-03-29T07:45:45.120Z,60.99
2023-03-29T07:48:18.560Z,59.15
2023-03-29T07:50:54.456Z,59.49
2023-03-29T07:53:30.814Z,58.80
2023-03-29T07:56:04.708Z,58.66
2023-03-29T07:58:55.857Z,57.79
2023-03-29T08:01:28.401Z,57.86
2023-03-29T08:04:18.278Z,57.38
2023-03-29T08:07:21.442Z,57.04
2023-03-29T08:10:15.445Z,57.16
2023-03-29T08:13:14.215Z,57.23
2023-03-29T08:16:13.140Z,56.58
2023-03-29T08:18:50.467Z,56.16
2023-03-29T08:21:23.571Z,56.22
2023-03-29T08:23:56.340Z,55.23
2023-03-29T08:26:39.835Z,54.55
2023-03-29T08:29:12.715Z,54.67
2023-03-29T08:31:45.694Z,54.43
2023-03-29T08:34:17.865Z,54.42
2023-03-29T08:37:03.362Z,53.85
2023-03-29T08:39:43.066Z,53.50
2023-03-29T08:42:58.831Z,52.94
2023-03-29T08:45:44.124Z,52.66
2023-03-29T08:48:23.561Z,52.02
2023-03-29T08:50:59.295Z,52.39
2023-03-29T08:53:35.087Z,51.80
2023-03-29T08:56:19.920Z,51.59
2023-03-29T08:59:25.238Z,51.58
2023-03-29T09:02:01.516Z,51.36
2023-03-29T09:04:37.817Z,51.25
2023-03-29T09:07:35.298Z,51.66
2023-03-29T09:10:11.105Z,50.88
2023-03-29T09:13:00.063Z,50.73
2023-03-29T09:15:43.165Z,49.93
2023-03-29T09:18:58.545Z,49.70
2023-03-29T09:21:42.719Z,48.85
2023-03-29T09:24:34.961Z,48.19
2023-03-29T09:27:23.147Z,47.82
2023-03-29T09:30:10.946Z,48.27
2023-03-29T09:33:02.069Z,47.44
2023-03-29T09:35:49.295Z,47.82
2023-03-29T09:38:23.834Z,47.55
2023-03-29T09:40:58.471Z,47.63
2023-03-29T09:43:37.327Z,47.24
2023-03-29T09:46:18.561Z,46.83
2023-03-29T09:48:53.674Z,46.53
2023-03-29T09:51:32.239Z,47.12
2023-03-29T09:54:04.834Z,46.63
2023-03-29T09:56:57.010Z,46.04
2023-03-29T09:59:29.533Z,45.76
2023-03-29T10:02:11.376Z,45.74
2023-03-29T10:04:44.676Z,45.69
2023-03-29T10:07:20.825Z,44.48
2023-03-29T10:09:59.745Z,44.96
2023-03-29T10:12:34.310Z,43.71
2023-03-29T10:15:11.727Z,43.32
2023-03-29T10:17:49.117Z,43.37
2023-03-29T10:20:22.523Z,43.20
2023-03-29T10:22:59.425Z,42.71
2023-03-29T10:25:33.832Z,42.82
2023-03-29T10:28:13.148Z,41.87
2023-03-29T10:30:47.610Z,41.67
2023-03-29T10:33:23.166Z,41.11
2023-03-29T10:35:56.642Z,40.47
2023-03-29T10:38:31.568Z,41.03
2023-03-29T10:41:11.787Z,40.44
2023-03-29T10:43:49.572Z,40.82
2023-03-29T10:46:28.764Z,39.94
2023-03-29T10:49:06.364Z,39.01
2023-03-29T10:51:39.150Z,37.38
2023-03-29T10:54:15.931Z,38.47
2023-03-29T10:56:52.562Z,38.32
2023-03-29T10:59:31.220Z,38.05
2023-03-29T11:02:27.256Z,36.69
2023-03-29T11:05:10.691Z,35.82
2023-03-29T11:07:54.012Z,36.06
2023-03-29T11:10:38.587Z,36.25
2023-03-29T11:13:22.397Z,36.45
2023-03-29T11:16:05.568Z,36.30
2023-03-29T11:18:57.890Z,36.38
2023-03-29T11:21:39.865Z,35.66
2023-03-29T11:24:30.745Z,35.82
2023-03-29T11:27:24.884Z,36.15
2023-03-29T11:30:11.049Z,36.16
2023-03-29T11:32:54.728Z,36.10
2023-03-29T11:35:43.476Z,36.39
2023-03-29T11:38:25.794Z,36.36
2023-03-29T11:41:03.600Z,35.93
2023-03-29T11:43:42.977Z,35.83
2023-03-29T11:46:20.347Z,35.65
2023-03-29T11:48:58.155Z,35.64
2023-03-29T11:51:35.613Z,35.54
2023-03-29T11:54:18.863Z,35.51
2023-03-29T11:56:57.440Z,35.41
2023-03-29T11:59:35.326Z,34.84
2023-03-29T12:02:19.834Z,34.57
2023-03-29T12:04:57.193Z,34.21
2023-03-29T12:07:33.875Z,34.36
2023-03-29T12:10:11.125Z,33.29
2023-03-29T12:12:52.800Z,33.51
2023-03-29T12:15:27.983Z,33.65
2023-03-29T12:18:08.899Z,33.20
2023-03-29T12:20:42.743Z,32.67
2023-03-29T12:23:18.950Z,32.41
2023-03-29T12:26:02.551Z,31.64
2023-03-29T12:29:13.550Z,31.34
2023-03-29T12:31:54.714Z,30.86
2023-03-29T12:34:50.062Z,30.50
2023-03-29T12:38:07.368Z,30.18
2023-03-29T12:41:02.160Z,31.57
2023-03-29T12:44:02.166Z,32.01
2023-03-29T12:46:59.650Z,32.77
2023-03-29T12:49:35.606Z,32.38
2023-03-29T12:52:24.838Z,32.44
2023-03-29T12:54:59.907Z,32.70
2023-03-29T12:57:44.728Z,32.40
2023-03-29T13:00:27.612Z,31.32
2023-03-29T13:03:22.820Z,29.11
2023-03-29T13:06:05.277Z,27.06
2023-03-29T13:08:40.778Z,26.19
2023-03-29T13:11:27.632Z,25.35
2023-03-29T13:14:01.586Z,23.69
2023-03-29T13:16:36.129Z,24.01
2023-03-29T13:19:28.723Z,22.98
2023-03-29T13:22:18.876Z,22.74
2023-03-29T13:25:06.375Z,22.18
2023-03-29T13:27:51.205Z,21.76
2023-03-29T13:30:33.701Z,21.07
2023-03-29T13:33:35.545Z,20.91
2023-03-29T13:36:16.166Z,20.56
2023-03-29T13:38:51.303Z,20.78
2023-03-29T13:41:47.028Z,20.08
2023-03-29T13:44:36.137Z,19.71
2023-03-29T13:47:28.661Z,19.89
2023-03-29T13:50:06.675Z,19.58
2023-03-29T13:52:42.603Z,19.74
2023-03-29T13:55:21.139Z,19.67
2023-03-29T13:57:57.787Z,19.18
2023-03-29T14:00:37.027Z,18.74
2023-03-29T14:03:14.170Z,19.24
2023-03-29T14:05:53.555Z,19.17
2023-03-29T14:08:30.401Z,18.48
2023-03-29T14:11:07.457Z,18.27
2023-03-29T14:13:40.370Z,18.17
2023-03-29T14:16:14.868Z,18.75
2023-03-29T14:18:51.373Z,17.77
2023-03-29T14:21:24.128Z,18.14
2023-03-29T14:24:01.698Z,18.76
2023-03-29T14:26:36.125Z,18.84
2023-03-29T14:29:12.137Z,19.21
2023-03-29T14:31:45.695Z,19.35
2023-03-29T14:34:19.585Z,18.66
2023-03-29T14:36:54.383Z,18.98
2023-03-29T14:39:27.444Z,18.42
2023-03-29T14:41:59.755Z,18.53
2023-03-29T14:44:34.928Z,18.89
2023-03-29T14:47:05.570Z,19.29
2023-03-29T14:49:38.004Z,20.02
2023-03-29T14:52:11.161Z,19.88
2023-03-29T14:54:47.971Z,20.01
2023-03-29T14:57:24.405Z,20.19
2023-03-29T15:00:00.766Z,20.09
2023-03-29T15:02:35.004Z,19.81
2023-03-29T15:05:25.027Z,20.36
2023-03-29T15:07:57.845Z,21.19
2023-03-29T15:10:32.837Z,21.52
2023-03-29T15:13:08.071Z,21.58
2023-03-29T15:15:41.118Z,21.81
2023-03-29T15:18:18.082Z,22.41
2023-03-29T15:20:51.819Z,22.36
2023-03-29T15:23:26.746Z,22.69
2023-03-29T15:26:08.772Z,23.96
2023-03-29T15:28:55.736Z,25.08
2023-03-29T15:31:35.070Z,26.77
2023-03-29T15:34:09.606Z,27.84
2023-03-29T15:36:45.360Z,28.38
2023-03-29T15:39:19.646Z,29.52
2023-03-29T15:41:54.063Z,30.56
2023-03-29T15:44:33.337Z,31.65
2023-03-29T15:47:10.444Z,32.70
2023-03-29T15:49:42.812Z,33.26
2023-03-29T15:52:17.493Z,33.49
2023-03-29T15:54:49.841Z,34.27
2023-03-29T15:57:22.188Z,34.53
2023-03-29T15:59:54.442Z,35.40
2023-03-29T16:02:28.235Z,35.61
2023-03-29T16:05:02.058Z,37.19
2023-03-29T16:07:34.078Z,36.55
2023-03-29T16:10:07.337Z,38.27
2023-03-29T16:12:39.501Z,37.66
2023-03-29T16:15:18.766Z,38.39
2023-03-29T16:17:51.168Z,39.44
2023-03-29T16:20:23.415Z,38.93
2023-03-29T16:22:55.475Z,39.28
2023-03-29T16:25:28.980Z,38.97
2023-03-29T16:28:01.743Z,39.36
2023-03-29T16:30:33.952Z,39.42
2023-03-29T16:33:08.749Z,39.78
2023-03-29T16:35:42.371Z,40.23
2023-03-29T16:38:14.627Z,41.08
2023-03-29T16:40:46.880Z,41.17
2023-03-29T16:43:20.038Z,41.22
2023-03-29T16:45:52.151Z,40.97
2023-03-29T16:48:25.312Z,40.85
2023-03-29T16:50:57.748Z,40.58
2023-03-29T16:53:30.477Z,40.30
2023-03-29T16:56:03.155Z,40.97
2023-03-29T16:58:35.784Z,40.88
2023-03-29T17:01:13.408Z,40.86
2023-03-29T17:03:46.647Z,41.09
2023-03-29T17:06:19.017Z,41.24
2023-03-29T17:08:51.890Z,41.53
2023-03-29T17:11:24.229Z,41.72
2023-03-29T17:13:56.642Z,41.79
2023-03-29T17:16:29.582Z,42.40
2023-03-29T17:19:02.553Z,42.29
2023-03-29T17:21:34.990Z,42.96
2023-03-29T17:24:07.589Z,43.16
2023-03-29T17:26:40.074Z,43.51
2023-03-29T17:29:12.558Z,43.82
2023-03-29T17:31:48.237Z,44.11
2023-03-29T17:34:21.466Z,44.56
2023-03-29T17:36:54.537Z,44.99
2023-03-29T17:39:27.827Z,45.37
2023-03-29T17:42:03.050Z,45.72
2023-03-29T17:44:35.182Z,46.00
2023-03-29T17:47:08.421Z,45.99
2023-03-29T17:49:40.628Z,46.40
2023-03-29T17:52:13.327Z,46.11
2023-03-29T17:54:45.525Z,46.95
2023-03-29T17:57:17.979Z,46.94
2023-03-29T17:59:50.417Z,47.88
2023-03-29T18:02:24.924Z,48.01
2023-03-29T18:04:57.454Z,48.50
2023-03-29T18:07:30.341Z,48.82
2023-03-29T18:10:02.730Z,48.48
2023-03-29T18:12:35.454Z,48.20
2023-03-29T18:15:10.636Z,49.16
2023-03-29T18:17:44.972Z,48.63
2023-03-29T18:20:17.847Z,48.59
2023-03-29T18:22:50.577Z,49.27
2023-03-29T18:25:24.264Z,49.24
2023-03-29T18:27:58.924Z,49.49
2023-03-29T18:30:34.331Z,49.69
2023-03-29T18:33:08.599Z,49.93
2023-03-29T18:35:41.529Z,49.60
2023-03-29T18:38:14.597Z,49.97
2023-03-29T18:40:47.430Z,49.84
2023-03-29T18:43:20.320Z,50.01
2023-03-29T18:45:53.046Z,50.38
2023-03-29T18:48:26.604Z,50.51
2023-03-29T18:51:01.914Z,50.31
2023-03-29T18:53:36.036Z,50.09
2023-03-29T18:56:11.351Z,50.63
2023-03-29T18:58:44.085Z,50.51
2023-03-29T19:01:18.949Z,50.79
2023-03-29T19:03:52.239Z,51.18
2023-03-29T19:06:25.078Z,51.41
2023-03-29T19:08:58.396Z,51.46
2023-03-29T19:11:33.379Z,51.75
2023-03-29T19:14:08.524Z,51.45
2023-03-29T19:16:42.835Z,52.35
2023-03-29T19:19:15.684Z,52.35
2023-03-29T19:21:48.983Z,52.79
2023-03-29T19:24:22.231Z,52.94
2023-03-29T19:26:54.684Z,52.98
2023-03-29T19:29:27.953Z,53.71
2023-03-29T19:32:01.981Z,53.61
2023-03-29T19:34:34.667Z,54.93
2023-03-29T19:37:07.056Z,54.36
2023-03-29T19:39:41.215Z,54.53
2023-03-29T19:42:13.455Z,54.57
2023-03-29T19:44:45.747Z,54.96
2023-03-29T19:47:18.086Z,55.23
2023-03-29T19:49:50.372Z,54.66
2023-03-29T19:52:24.135Z,54.68
2023-03-29T19:54:56.682Z,54.75
2023-03-29T19:57:28.956Z,55.19
2023-03-29T20:00:01.551Z,55.18
2023-03-29T20:02:34.271Z,55.26
2023-03-29T20:05:08.539Z,55.39
2023-03-29T20:07:41.399Z,55.56
2023-03-29T20:10:14.431Z,55.48
2023-03-29T20:12:47.685Z,55.50
2023-03-29T20:15:20.840Z,55.59
2023-03-29T20:17:54.484Z,55.83
2023-03-29T20:20:30.016Z,56.01
2023-03-29T20:23:05.289Z,55.90
2023-03-29T20:25:38.835Z,56.24
2023-03-29T20:28:13.042Z,56.07
2023-03-29T20:30:45.841Z,56.64
2023-03-29T20:33:18.454Z,56.56
2023-03-29T20:35:51.759Z,56.64
2023-03-29T20:38:24.141Z,56.78
2023-03-29T20:40:56.962Z,56.74
2023-03-29T20:43:30.072Z,56.96
2023-03-29T20:46:02.294Z,56.85
2023-03-29T20:48:38.423Z,57.10
2023-03-29T20:51:10.311Z,57.04
2023-03-29T20:53:43.677Z,57.39
2023-03-29T20:56:16.415Z,57.03
2023-03-29T20:58:48.536Z,57.33
2023-03-29T21:01:22.002Z,57.72
2023-03-29T21:03:54.458Z,57.46
2023-03-29T21:06:27.299Z,57.99
2023-03-29T21:09:00.146Z,57.78
2023-03-29T21:11:33.589Z,57.87
2023-03-29T21:14:06.171Z,58.07
2023-03-29T21:16:42.641Z,57.86
2023-03-29T21:19:15.571Z,58.00
2023-03-29T21:21:52.328Z,58.06
2023-03-29T21:24:24.801Z,58.19
2023-03-29T21:26:57.242Z,58.28
2023-03-29T21:29:29.823Z,58.45
2023-03-29T21:32:02.495Z,58.56
2023-03-29T21:34:35.032Z,59.19
2023-03-29T21:37:07.634Z,59.07
2023-03-29T21:39:40.160Z,58.99
2023-03-29T21:42:12.585Z,58.77
2023-03-29T21:44:45.079Z,59.11
2023-03-29T21:47:17.558Z,59.57
2023-03-29T21:49:50.109Z,59.55
2023-03-29T21:52:23.072Z,59.29
2023-03-29T21:54:55.653Z,59.33
2023-03-29T21:57:28.100Z,60.18
2023-03-29T22:00:00.529Z,59.91
2023-03-29T22:02:33.133Z,59.94
2023-03-29T22:05:06.908Z,59.99
2023-03-29T22:07:45.727Z,60.18
2023-03-29T22:10:22.836Z,60.07
2023-03-29T22:12:55.387Z,60.29
2023-03-29T22:15:30.155Z,60.33
2023-03-29T22:18:02.628Z,60.58
2023-03-29T22:20:35.796Z,60.28
2023-03-29T22:23:08.408Z,60.45
2023-03-29T22:25:41.146Z,60.58
2023-03-29T22:28:13.779Z,60.53
2023-03-29T22:30:46.303Z,60.68
2023-03-29T22:33:18.778Z,60.59
2023-03-29T22:35:51.151Z,61.18
2023-03-29T22:38:23.521Z,60.71
2023-03-29T22:40:56.517Z,60.97
2023-03-29T22:43:28.920Z,61.29
2023-03-29T22:46:01.331Z,61.08
2023-03-29T22:48:34.242Z,61.74
2023-03-29T22:51:07.144Z,61.76
2023-03-29T22:53:40.345Z,61.77
2023-03-29T22:56:13.413Z,61.76
2023-03-29T22:58:46.393Z,61.62
2023-03-29T23:01:18.834Z,61.21
2023-03-29T23:03:51.977Z,61.51
2023-03-29T23:06:24.461Z,61.28
2023-03-29T23:08:57.221Z,61.38
2023-03-29T23:11:29.636Z,61.66
2023-03-29T23:14:04.160Z,61.57
2023-03-29T23:16:37.111Z,61.59
2023-03-29T23:19:09.484Z,61.64
2023-03-29T23:21:41.841Z,61.49
2023-03-29T23:24:18.863Z,61.51
2023-03-29T23:26:52.024Z,61.91
2023-03-29T23:29:26.536Z,61.94
2023-03-29T23:31:59.801Z,62.49
2023-03-29T23:34:32.271Z,62.83
2023-03-29T23:37:04.898Z,62.70
2023-03-29T23:39:37.393Z,62.65
2023-03-29T23:42:09.790Z,62.66
2023-03-29T23:44:42.168Z,62.62
2023-03-29T23:47:14.469Z,62.73
2023-03-29T23:49:46.910Z,63.14
2023-03-29T23:52:19.281Z,62.99
2023-03-29T23:54:52.692Z,62.98
2023-03-29T23:57:26.951Z,63.45
